Time;durP1;ratioP1;P1;durP2;ratioP2;P2;SDS_P1;SDS_P2;PMS_P1;PMS_P2;Temp;Humidity;BMP_temperature;BMP_pressure;BME280_temperature;BME280_humidity;BME280_pressure;Samples;Min_cycle;Max_cycle;Signal;HPM_P1;HPM_P2
2022/03/22 00:02:17;;;;;;;;;;;12.70;99.90;;;;;;5097095;28;20380;-80
2022/03/22 00:04:43;;;;;;;;;;;12.60;99.90;;;;;;5097080;28;19973;-82
2022/03/22 00:07:08;;;;;;;;;;;12.50;99.90;;;;;;5115230;28;19912;-79
2022/03/22 00:09:34;;;;;;;;;;;12.50;99.90;;;;;;5097005;28;19908;-79
2022/03/22 00:12:00;;;;;;;;;;;12.40;99.90;;;;;;5115212;28;19994;-81
2022/03/22 00:14:26;;;;;;;;;;;12.30;99.90;;;;;;5115613;28;19908;-79
2022/03/22 00:16:53;;;;;;;;;;;12.40;99.90;;;;;;5115048;28;19920;-82
2022/03/22 00:19:19;;;;;;;;;;;12.40;99.90;;;;;;5096785;28;19999;-80
2022/03/22 00:21:46;;;;;;;;;;;12.50;99.90;;;;;;5114382;28;19950;-79
2022/03/22 00:24:12;;;;;;;;;;;12.50;99.90;;;;;;5114979;28;20448;-80
2022/03/22 00:26:38;;;;;;;;;;;12.50;99.90;;;;;;5114888;28;20445;-79
2022/03/22 00:29:04;;;;;;;;;;;12.40;99.90;;;;;;5114934;28;19908;-80
2022/03/22 00:31:30;;;;;;;;;;;12.40;99.90;;;;;;5114863;28;19908;-82
2022/03/22 00:33:55;;;;;;;;;;;12.30;99.90;;;;;;5114787;28;19915;-81
2022/03/22 00:36:22;;;;;;;;;;;12.30;99.90;;;;;;5114793;28;19911;-79
2022/03/22 00:38:48;;;;;;;;;;;12.30;99.90;;;;;;5114690;28;19915;-80
2022/03/22 00:41:16;;;;;;;;;;;12.20;99.90;;;;;;5114689;28;19912;-82
2022/03/22 00:43:46;;;;;;;;;;;12.20;99.90;;;;;;5114999;28;20318;-82
2022/03/22 00:46:12;;;;;;;;;;;12.10;99.90;;;;;;5114824;28;19914;-80
2022/03/22 00:48:37;;;;;;;;;;;12.10;99.90;;;;;;5114478;28;19912;-82
2022/03/22 00:51:04;;;;;;;;;;;12.10;99.90;;;;;;5114498;28;19912;-79
2022/03/22 00:53:29;;;;;;;;;;;12.10;99.90;;;;;;5114341;28;19907;-78
2022/03/22 00:55:55;;;;;;;;;;;12.10;99.90;;;;;;5114444;28;19977;-80
2022/03/22 00:58:21;;;;;;;;;;;11.90;99.90;;;;;;5114373;28;19908;-78
2022/03/22 01:00:48;;;;;;;;;;;11.90;99.90;;;;;;5114341;28;19930;-80
2022/03/22 01:03:13;;;;;;;;;;;11.90;99.90;;;;;;5096103;28;20450;-79
2022/03/22 01:05:39;;;;;;;;;;;11.80;99.90;;;;;;5114542;28;19939;-78
2022/03/22 01:08:06;;;;;;;;;;;11.80;99.90;;;;;;5114208;28;19919;-78
2022/03/22 01:10:32;;;;;;;;;;;11.80;99.90;;;;;;5114250;28;19907;-79
2022/03/22 01:12:58;;;;;;;;;;;11.70;99.90;;;;;;5095976;28;19999;-81
2022/03/22 01:15:32;;;;;;;;;;;11.70;99.90;;;;;;5114198;28;19946;-80
2022/03/22 01:17:58;;;;;;;;;;;11.70;99.90;;;;;;5113863;28;20015;-79
2022/03/22 01:20:26;;;;;;;;;;;11.60;99.90;;;;;;5114260;28;19947;-82
2022/03/22 01:22:52;;;;;;;;;;;11.60;99.90;;;;;;5114098;28;19956;-82
2022/03/22 01:25:23;;;;;;;;;;;11.50;99.90;;;;;;5114085;28;19915;-80
2022/03/22 01:27:49;;;;;;;;;;;11.60;99.90;;;;;;5114301;28;19915;-80
2022/03/22 01:30:16;;;;;;;;;;;11.50;99.90;;;;;;5114456;28;20041;-80
2022/03/22 01:32:43;;;;;;;;;;;11.50;99.90;;;;;;5095766;28;19908;-79
2022/03/22 01:35:11;;;;;;;;;;;11.50;99.90;;;;;;5099830;28;19955;-79
2022/03/22 01:37:37;;;;;;;;;;;11.40;99.90;;;;;;5118284;28;19908;-79
2022/03/22 01:40:07;;;;;;;;;;;11.40;99.90;;;;;;5118172;28;19986;-81
2022/03/22 01:42:33;;;;;;;;;;;11.40;99.90;;;;;;5118348;28;20030;-80
2022/03/22 01:44:59;;;;;;;;;;;11.40;99.90;;;;;;5118292;28;19907;-80
2022/03/22 01:47:25;;;;;;;;;;;11.30;99.90;;;;;;5118107;28;20324;-81
2022/03/22 01:49:50;;;;;;;;;;;11.30;99.90;;;;;;5099694;28;19907;-81
2022/03/22 01:52:23;;;;;;;;;;;11.30;99.90;;;;;;5118008;28;19915;-78
2022/03/22 01:54:50;;;;;;;;;;;11.30;99.90;;;;;;5099562;28;19951;-80
2022/03/22 01:57:18;;;;;;;;;;;11.20;99.90;;;;;;5117872;28;19908;-80
2022/03/22 01:59:44;;;;;;;;;;;11.20;99.90;;;;;;5099469;28;19911;-79
2022/03/22 02:07:40;;;;;;;;;;;10.80;99.90;;;;;;5117544;28;19918;-79
2022/03/22 02:10:06;;;;;;;;;;;10.70;99.90;;;;;;5117858;28;19908;-80
2022/03/22 02:12:31;;;;;;;;;;;10.60;99.90;;;;;;5099008;28;20261;-79
2022/03/22 02:14:57;;;;;;;;;;;10.60;99.90;;;;;;5117488;28;19914;-79
2022/03/22 02:17:22;;;;;;;;;;;10.60;99.90;;;;;;5117142;28;19969;-80
2022/03/22 02:19:48;;;;;;;;;;;10.70;99.90;;;;;;5117679;28;19959;-79
2022/03/22 02:22:16;;;;;;;;;;;10.60;99.90;;;;;;5117322;28;19912;-82
2022/03/22 02:24:42;;;;;;;;;;;10.60;99.90;;;;;;5098982;28;19911;-80
2022/03/22 02:27:08;;;;;;;;;;;10.50;99.90;;;;;;5117179;28;19912;-82
2022/03/22 02:29:34;;;;;;;;;;;10.60;99.90;;;;;;5117422;28;20070;-81
2022/03/22 02:32:00;;;;;;;;;;;10.60;99.90;;;;;;5117357;28;19960;-78
2022/03/22 02:34:26;;;;;;;;;;;10.60;99.90;;;;;;5117269;28;19908;-81
2022/03/22 02:36:51;;;;;;;;;;;10.60;99.90;;;;;;5117085;28;20290;-79
2022/03/22 02:39:17;;;;;;;;;;;10.50;99.90;;;;;;5117071;28;19968;-80
2022/03/22 02:41:45;;;;;;;;;;;10.60;99.90;;;;;;5098710;28;19915;-83
2022/03/22 02:44:11;;;;;;;;;;;10.50;99.90;;;;;;5116960;28;19958;-81
2022/03/22 02:46:37;;;;;;;;;;;10.50;99.90;;;;;;5116204;28;19908;-80
2022/03/22 02:49:03;;;;;;;;;;;10.40;99.90;;;;;;5116771;28;19912;-82
2022/03/22 02:51:29;;;;;;;;;;;10.30;99.90;;;;;;5117019;28;19908;-79
2022/03/22 02:53:54;;;;;;;;;;;10.20;99.90;;;;;;5116710;28;19937;-79
2022/03/22 02:56:20;;;;;;;;;;;10.20;99.90;;;;;;5116762;28;19911;-79
2022/03/22 02:58:46;;;;;;;;;;;10.20;99.90;;;;;;5116708;28;20403;-82
2022/03/22 03:01:11;;;;;;;;;;;10.10;99.90;;;;;;5099119;28;20036;-81
2022/03/22 03:03:37;;;;;;;;;;;10.20;99.90;;;;;;5098299;28;20388;-81
2022/03/22 03:06:02;;;;;;;;;;;10.20;99.90;;;;;;5116558;28;19908;-80
2022/03/22 03:08:28;;;;;;;;;;;10.20;99.90;;;;;;5116401;28;19919;-79
2022/03/22 03:10:54;;;;;;;;;;;10.10;99.90;;;;;;5116419;28;19935;-80
2022/03/22 03:13:19;;;;;;;;;;;10.00;99.90;;;;;;5116564;28;19965;-79
2022/03/22 03:15:46;;;;;;;;;;;9.90;99.90;;;;;;5116625;28;20360;-82
2022/03/22 03:18:13;;;;;;;;;;;9.80;99.90;;;;;;5097734;28;20333;-80
2022/03/22 03:20:39;;;;;;;;;;;9.80;99.90;;;;;;5116278;28;19907;-79
2022/03/22 03:23:05;;;;;;;;;;;9.70;99.90;;;;;;5116237;28;19907;-80
2022/03/22 03:25:30;;;;;;;;;;;9.70;99.90;;;;;;5116429;28;19912;-80
2022/03/22 03:27:56;;;;;;;;;;;9.80;99.90;;;;;;5116115;28;19919;-81
2022/03/22 03:30:22;;;;;;;;;;;9.90;99.90;;;;;;5116048;28;19907;-79
2022/03/22 03:32:47;;;;;;;;;;;9.90;99.90;;;;;;5116005;28;19907;-81
2022/03/22 03:35:13;;;;;;;;;;;9.80;99.90;;;;;;5116231;28;19998;-81
2022/03/22 03:37:42;;;;;;;;;;;9.80;99.90;;;;;;5115944;28;19986;-82
2022/03/22 03:40:08;;;;;;;;;;;9.70;99.90;;;;;;5115947;28;20364;-79
2022/03/22 03:42:41;;;;;;;;;;;9.70;99.90;;;;;;5097278;28;19912;-79
2022/03/22 03:47:52;;;;;;;;;;;9.70;99.90;;;;;;5115481;28;19977;-81
2022/03/22 03:50:18;;;;;;;;;;;9.70;99.90;;;;;;5115713;28;19951;-82
2022/03/22 03:52:43;;;;;;;;;;;9.60;99.90;;;;;;5097286;28;19919;-81
2022/03/22 03:55:10;;;;;;;;;;;9.70;99.90;;;;;;5115524;28;19911;-81
2022/03/22 03:57:36;;;;;;;;;;;9.60;99.90;;;;;;5114464;28;19908;-79
2022/03/22 04:00:03;;;;;;;;;;;9.60;99.90;;;;;;5115509;28;20379;-81
2022/03/22 04:02:28;;;;;;;;;;;9.50;99.90;;;;;;5115367;28;20368;-81
2022/03/22 04:04:55;;;;;;;;;;;9.50;99.90;;;;;;5115575;28;19915;-80
2022/03/22 04:07:22;;;;;;;;;;;9.50;99.90;;;;;;5115248;28;19919;-79
2022/03/22 04:09:47;;;;;;;;;;;9.40;99.90;;;;;;5097038;28;19908;-79
2022/03/22 04:12:13;;;;;;;;;;;9.40;99.90;;;;;;5096979;28;19956;-80
2022/03/22 04:14:38;;;;;;;;;;;9.40;99.90;;;;;;5115681;28;19908;-82
2022/03/22 04:17:07;;;;;;;;;;;9.40;99.90;;;;;;5114916;28;19962;-79
2022/03/22 04:19:33;;;;;;;;;;;9.40;99.90;;;;;;5115391;28;19915;-82
2022/03/22 04:21:58;;;;;;;;;;;9.40;99.90;;;;;;5115272;28;19908;-81
2022/03/22 04:24:24;;;;;;;;;;;9.30;99.90;;;;;;5115066;28;20318;-82
2022/03/22 04:26:50;;;;;;;;;;;9.40;99.90;;;;;;5096640;28;19907;-79
2022/03/22 04:34:44;;;;;;;;;;;9.20;99.90;;;;;;5115170;28;19918;-81
2022/03/22 04:37:14;;;;;;;;;;;9.10;99.90;;;;;;5114807;28;19947;-78
2022/03/22 04:39:41;;;;;;;;;;;9.10;99.90;;;;;;5114867;28;19908;-81
2022/03/22 04:42:07;;;;;;;;;;;9.10;99.90;;;;;;5114840;28;20283;-81
2022/03/22 04:44:33;;;;;;;;;;;9.10;99.90;;;;;;5114798;28;19915;-79
2022/03/22 04:46:59;;;;;;;;;;;9.00;99.90;;;;;;5114576;28;19915;-80
2022/03/22 04:49:25;;;;;;;;;;;9.00;99.90;;;;;;5114551;28;19912;-81
2022/03/22 04:57:19;;;;;;;;;;;9.00;99.90;;;;;;5114594;28;19914;-79
2022/03/22 04:59:45;;;;;;;;;;;9.00;99.90;;;;;;5114684;28;19986;-77
2022/03/22 05:02:11;;;;;;;;;;;8.90;99.90;;;;;;5114415;28;19915;-78
2022/03/22 05:04:37;;;;;;;;;;;8.90;99.90;;;;;;5114395;28;19912;-81
2022/03/22 05:07:03;;;;;;;;;;;8.90;99.90;;;;;;5114273;28;19912;-80
2022/03/22 05:09:28;;;;;;;;;;;8.80;99.90;;;;;;5114042;28;20330;-80
2022/03/22 05:11:55;;;;;;;;;;;8.80;99.90;;;;;;5114343;28;19941;-81
2022/03/22 05:14:20;;;;;;;;;;;8.70;99.90;;;;;;5114256;28;20379;-80
2022/03/22 05:16:46;;;;;;;;;;;8.70;99.90;;;;;;5113969;28;20018;-82
2022/03/22 05:19:14;;;;;;;;;;;8.70;99.90;;;;;;5113383;28;21322;-79
2022/03/22 05:21:40;;;;;;;;;;;8.60;99.90;;;;;;5114162;28;19908;-82
2022/03/22 05:24:06;;;;;;;;;;;8.70;99.90;;;;;;5114342;28;19914;-82
2022/03/22 05:26:31;;;;;;;;;;;8.60;99.90;;;;;;5114220;28;19908;-79
2022/03/22 05:28:57;;;;;;;;;;;8.60;99.90;;;;;;5114201;28;19961;-80
2022/03/22 05:31:23;;;;;;;;;;;8.60;99.90;;;;;;5114009;28;19908;-82
2022/03/22 05:33:49;;;;;;;;;;;8.50;99.90;;;;;;5114003;28;19908;-81
2022/03/22 05:36:15;;;;;;;;;;;8.50;99.90;;;;;;5114190;28;20325;-81
2022/03/22 05:38:41;;;;;;;;;;;8.50;99.90;;;;;;5113945;28;19908;-81
2022/03/22 05:41:08;;;;;;;;;;;8.50;99.90;;;;;;5113968;28;19931;-79
2022/03/22 05:43:35;;;;;;;;;;;8.50;99.90;;;;;;5113910;28;19912;-79
2022/03/22 05:46:02;;;;;;;;;;;8.50;99.90;;;;;;5114114;28;20441;-81
2022/03/22 05:48:27;;;;;;;;;;;8.50;99.90;;;;;;5113817;28;19918;-79
2022/03/22 05:50:53;;;;;;;;;;;8.50;99.90;;;;;;5113900;28;19907;-81
2022/03/22 05:53:19;;;;;;;;;;;8.40;99.90;;;;;;5095616;28;20393;-80
2022/03/22 05:55:44;;;;;;;;;;;8.40;99.90;;;;;;5113736;28;20002;-81
2022/03/22 05:58:10;;;;;;;;;;;8.50;99.90;;;;;;5113797;28;19911;-81
2022/03/22 06:00:36;;;;;;;;;;;8.50;99.90;;;;;;5113772;28;19911;-78
2022/03/22 06:03:01;;;;;;;;;;;8.50;99.90;;;;;;5113750;28;20276;-82
2022/03/22 06:05:30;;;;;;;;;;;8.40;99.90;;;;;;5113754;28;19976;-79
2022/03/22 06:07:56;;;;;;;;;;;8.40;99.90;;;;;;5113632;28;20287;-79
2022/03/22 06:10:22;;;;;;;;;;;8.40;99.90;;;;;;5113810;28;19987;-81
2022/03/22 06:12:49;;;;;;;;;;;8.30;99.90;;;;;;5113719;28;19958;-82
2022/03/22 06:15:16;;;;;;;;;;;8.40;99.90;;;;;;5113880;28;20388;-82
2022/03/22 06:17:49;;;;;;;;;;;8.30;99.90;;;;;;5113620;28;20384;-82
2022/03/22 06:20:16;;;;;;;;;;;8.40;99.90;;;;;;5114396;28;19911;-78
2022/03/22 06:22:42;;;;;;;;;;;8.40;99.90;;;;;;5117470;28;19963;-80
2022/03/22 06:25:08;;;;;;;;;;;8.50;99.90;;;;;;5117292;28;19907;-81
2022/03/22 06:27:35;;;;;;;;;;;8.50;99.90;;;;;;5117178;28;20376;-80
2022/03/22 06:30:08;;;;;;;;;;;8.50;99.90;;;;;;5117358;28;19942;-80
2022/03/22 06:33:00;;;;;;;;;;;8.60;99.90;;;;;;5117344;28;20086;-79
2022/03/22 06:35:30;;;;;;;;;;;8.60;99.90;;;;;;5112533;28;19914;-78
2022/03/22 06:37:56;;;;;;;;;;;8.70;99.90;;;;;;5117396;28;20292;-79
2022/03/22 06:40:23;;;;;;;;;;;8.80;99.90;;;;;;5117052;28;19908;-78
2022/03/22 06:42:49;;;;;;;;;;;9.00;99.90;;;;;;5116983;28;19908;-82
2022/03/22 06:45:15;;;;;;;;;;;9.30;99.90;;;;;;5098727;28;20002;-80
2022/03/22 06:47:42;;;;;;;;;;;9.50;99.90;;;;;;5116842;28;20328;-81
2022/03/22 06:50:08;;;;;;;;;;;9.60;99.90;;;;;;5116987;28;19917;-79
2022/03/22 06:52:34;;;;;;;;;;;9.80;99.90;;;;;;5098468;28;20298;-81
2022/03/22 06:54:59;;;;;;;;;;;10.00;99.90;;;;;;5116707;28;19908;-79
2022/03/22 06:57:27;;;;;;;;;;;10.20;99.90;;;;;;5116756;28;19908;-80
2022/03/22 06:59:52;;;;;;;;;;;10.40;99.90;;;;;;5116458;28;19908;-81
2022/03/22 07:02:18;;;;;;;;;;;10.60;99.90;;;;;;5116994;28;19967;-78
2022/03/22 07:04:45;;;;;;;;;;;10.80;99.90;;;;;;5116983;28;19912;-82
2022/03/22 07:07:10;;;;;;;;;;;11.10;99.90;;;;;;5116475;28;19919;-80
2022/03/22 07:09:36;;;;;;;;;;;11.00;99.90;;;;;;5116524;28;19908;-79
2022/03/22 07:12:01;;;;;;;;;;;11.10;99.90;;;;;;5116894;28;20432;-81
2022/03/22 07:14:27;;;;;;;;;;;11.20;99.90;;;;;;5098118;28;19908;-81
2022/03/22 07:16:53;;;;;;;;;;;11.30;99.50;;;;;;5116189;28;19973;-81
2022/03/22 07:19:20;;;;;;;;;;;11.20;99.90;;;;;;5116326;28;19907;-81
2022/03/22 07:21:46;;;;;;;;;;;11.30;99.30;;;;;;5116628;28;20429;-81
2022/03/22 07:24:13;;;;;;;;;;;11.30;98.90;;;;;;5116402;28;19954;-81
2022/03/22 07:26:40;;;;;;;;;;;11.30;99.10;;;;;;5116370;28;19908;-78
2022/03/22 07:29:06;;;;;;;;;;;11.30;99.20;;;;;;5116009;28;19943;-79
2022/03/22 07:31:37;;;;;;;;;;;11.40;99.10;;;;;;5115764;28;19908;-80
2022/03/22 07:34:05;;;;;;;;;;;11.40;98.60;;;;;;5116471;28;19908;-79
2022/03/22 07:36:30;;;;;;;;;;;11.50;98.80;;;;;;5116296;28;20435;-78
2022/03/22 07:38:56;;;;;;;;;;;11.50;98.40;;;;;;5116066;28;19931;-82
2022/03/22 07:41:22;;;;;;;;;;;11.70;98.10;;;;;;5115837;28;19957;-81
2022/03/22 07:43:47;;;;;;;;;;;11.70;96.90;;;;;;5115777;28;20295;-80
2022/03/22 07:46:13;;;;;;;;;;;11.80;97.30;;;;;;5115743;28;20455;-80
2022/03/22 07:48:38;;;;;;;;;;;11.80;97.10;;;;;;5115809;28;19918;-78
2022/03/22 07:53:49;;;;;;;;;;;12.10;96.30;;;;;;5115560;28;19970;-82
2022/03/22 07:56:15;;;;;;;;;;;12.40;96.30;;;;;;5116017;28;19911;-82
2022/03/22 07:58:41;;;;;;;;;;;12.80;95.60;;;;;;5115668;28;20260;-80
2022/03/22 08:01:07;;;;;;;;;;;12.90;93.60;;;;;;5115454;28;20291;-81
2022/03/22 08:03:32;;;;;;;;;;;13.10;93.70;;;;;;5097110;28;19908;-81
2022/03/22 08:06:00;;;;;;;;;;;13.60;92.90;;;;;;5115353;28;19907;-80
2022/03/22 08:08:25;;;;;;;;;;;13.80;92.50;;;;;;5115418;28;20010;-81
2022/03/22 08:10:51;;;;;;;;;;;14.00;92.30;;;;;;5115910;28;20375;-80
2022/03/22 08:13:17;;;;;;;;;;;14.10;91.70;;;;;;5115245;28;19915;-84
2022/03/22 08:15:42;;;;;;;;;;;13.70;91.60;;;;;;5115230;28;19908;-80
2022/03/22 08:18:09;;;;;;;;;;;13.80;91.50;;;;;;5093115;28;20022;-81
2022/03/22 08:20:35;;;;;;;;;;;14.10;90.20;;;;;;5094776;28;19971;-81
2022/03/22 08:25:47;;;;;;;;;;;14.60;90.00;;;;;;5095059;28;20002;-80
2022/03/22 08:28:14;;;;;;;;;;;14.60;90.00;;;;;;5095118;28;19947;-79
2022/03/22 08:30:40;;;;;;;;;;;14.70;88.10;;;;;;5093220;28;19942;-84
2022/03/22 08:33:07;;;;;;;;;;;14.50;86.70;;;;;;5094617;28;19931;-83
2022/03/22 08:35:33;;;;;;;;;;;15.20;86.50;;;;;;5094462;28;20383;-80
2022/03/22 08:37:59;;;;;;;;;;;16.10;83.00;;;;;;5094684;28;19908;-83
2022/03/22 08:40:24;;;;;;;;;;;16.60;79.50;;;;;;5094558;28;19914;-83
2022/03/22 08:42:52;;;;;;;;;;;17.20;78.30;;;;;;5094069;28;19908;-80
2022/03/22 08:45:19;;;;;;;;;;;18.10;77.70;;;;;;5094896;28;20425;-80
2022/03/22 08:47:45;;;;;;;;;;;18.80;73.40;;;;;;5094209;28;20022;-83
2022/03/22 08:50:13;;;;;;;;;;;19.10;72.20;;;;;;5092976;28;19951;-83
2022/03/22 08:52:38;;;;;;;;;;;19.00;69.50;;;;;;5094481;28;19922;-82
2022/03/22 08:55:05;;;;;;;;;;;19.10;68.70;;;;;;5094330;28;20277;-81
2022/03/22 08:57:31;;;;;;;;;;;19.00;66.00;;;;;;5092889;28;19977;-82
2022/03/22 08:59:58;;;;;;;;;;;19.20;68.10;;;;;;5092712;28;19908;-81
2022/03/22 09:02:23;;;;;;;;;;;19.70;64.80;;;;;;5092770;28;19912;-81
2022/03/22 09:07:33;;;;;;;;;;;19.20;61.50;;;;;;5093713;28;19919;-84
2022/03/22 09:09:59;;;;;;;;;;;19.50;60.90;;;;;;5092580;28;19908;-83
2022/03/22 09:12:25;;;;;;;;;;;19.60;62.60;;;;;;5092478;28;19916;-83
2022/03/22 09:14:53;;;;;;;;;;;20.00;61.40;;;;;;5094145;28;19943;-80
2022/03/22 09:17:21;;;;;;;;;;;20.20;59.00;;;;;;5103128;28;20495;-81
2022/03/22 09:19:47;;;;;;;;;;;20.80;59.70;;;;;;5114162;28;19915;-84
2022/03/22 09:22:14;;;;;;;;;;;21.70;59.50;;;;;;5114202;28;19908;-83
2022/03/22 09:24:40;;;;;;;;;;;21.80;55.80;;;;;;5095824;28;19915;-84
2022/03/22 09:27:05;;;;;;;;;;;21.90;55.00;;;;;;5114302;28;19908;-81
2022/03/22 09:29:31;;;;;;;;;;;22.20;54.70;;;;;;5114275;28;19942;-84
2022/03/22 09:31:56;;;;;;;;;;;22.60;54.80;;;;;;5114063;28;19911;-83
2022/03/22 09:34:24;;;;;;;;;;;24.00;52.90;;;;;;5114296;28;19988;-83
2022/03/22 09:36:51;;;;;;;;;;;23.80;50.60;;;;;;5114237;28;19907;-85
2022/03/22 09:39:16;;;;;;;;;;;24.30;50.30;;;;;;5114000;28;20352;-81
2022/03/22 09:41:42;;;;;;;;;;;24.20;50.00;;;;;;5095785;28;19915;-83
2022/03/22 09:44:09;;;;;;;;;;;25.00;50.10;;;;;;5114073;28;20395;-84
2022/03/22 09:46:35;;;;;;;;;;;26.30;48.50;;;;;;5114177;28;19939;-82
2022/03/22 09:49:01;;;;;;;;;;;25.90;46.50;;;;;;5095544;28;19955;-84
2022/03/22 09:51:45;;;;;;;;;;;25.70;46.60;;;;;;5095670;28;19908;-84
2022/03/22 09:54:15;;;;;;;;;;;24.60;46.80;;;;;;5096000;28;19934;-83
2022/03/22 09:56:42;;;;;;;;;;;24.10;47.70;;;;;;5099614;28;19939;-85
2022/03/22 09:59:08;;;;;;;;;;;24.10;47.70;;;;;;5118151;28;19921;-85
2022/03/22 10:01:33;;;;;;;;;;;24.10;48.30;;;;;;5117837;28;19912;-85
2022/03/22 10:04:00;;;;;;;;;;;24.90;48.10;;;;;;5099461;28;19956;-84
2022/03/22 10:06:27;;;;;;;;;;;25.00;45.50;;;;;;5099356;28;19961;-85
2022/03/22 10:08:53;;;;;;;;;;;25.10;46.60;;;;;;5117574;28;19912;-85
2022/03/22 10:11:18;;;;;;;;;;;26.20;46.40;;;;;;5117673;28;20284;-85
2022/03/22 10:13:54;;;;;;;;;;;26.70;45.40;;;;;;5099262;28;20006;-81
2022/03/22 10:16:20;;;;;;;;;;;26.90;45.20;;;;;;5117218;28;19908;-83
2022/03/22 10:18:45;;;;;;;;;;;27.20;45.00;;;;;;5117744;28;20007;-81
2022/03/22 10:21:11;;;;;;;;;;;27.00;43.40;;;;;;5118054;28;19912;-85
2022/03/22 10:23:49;;;;;;;;;;;27.40;44.50;;;;;;5117349;28;19951;-84
2022/03/22 10:26:14;;;;;;;;;;;26.80;43.80;;;;;;5117636;28;20015;-82
2022/03/22 10:28:52;;;;;;;;;;;27.80;43.70;;;;;;5117202;28;20388;-84
2022/03/22 10:31:19;;;;;;;;;;;26.90;43.10;;;;;;5117288;28;19908;-85
2022/03/22 10:33:49;;;;;;;;;;;27.20;44.00;;;;;;5098926;28;19950;-84
2022/03/22 10:36:15;;;;;;;;;;;27.60;43.40;;;;;;5098848;28;20368;-82
2022/03/22 10:38:40;;;;;;;;;;;28.20;43.20;;;;;;5117153;28;19908;-83
2022/03/22 10:41:07;;;;;;;;;;;28.30;42.90;;;;;;5117332;28;19931;-84
2022/03/22 10:43:36;;;;;;;;;;;28.40;41.90;;;;;;5117084;28;19911;-82
2022/03/22 10:46:02;;;;;;;;;;;29.70;41.50;;;;;;5098626;28;19915;-82
2022/03/22 10:48:27;;;;;;;;;;;28.60;41.90;;;;;;5116853;28;19912;-81
2022/03/22 10:50:59;;;;;;;;;;;29.50;41.60;;;;;;5117194;28;20419;-83
2022/03/22 10:53:26;;;;;;;;;;;30.30;41.80;;;;;;5116746;28;19908;-82
2022/03/22 10:55:54;;;;;;;;;;;31.10;40.00;;;;;;5116844;28;20388;-80
2022/03/22 10:58:21;;;;;;;;;;;30.40;40.20;;;;;;5116753;28;19908;-82
2022/03/22 11:00:48;;;;;;;;;;;29.60;39.50;;;;;;5098375;28;20002;-82
2022/03/22 11:03:15;;;;;;;;;;;30.40;40.20;;;;;;5098329;28;20382;-83
2022/03/22 11:05:43;;;;;;;;;;;29.50;41.30;;;;;;5116209;28;20318;-79
2022/03/22 11:08:09;;;;;;;;;;;29.70;40.10;;;;;;5098046;28;19957;-81
2022/03/22 11:10:35;;;;;;;;;;;30.20;40.30;;;;;;5116781;28;19929;-83
2022/03/22 11:13:01;;;;;;;;;;;30.00;39.90;;;;;;5116508;28;19908;-82
2022/03/22 11:15:28;;;;;;;;;;;29.50;40.10;;;;;;5116751;28;19915;-81
2022/03/22 11:17:54;;;;;;;;;;;29.70;40.40;;;;;;5116126;28;19927;-81
2022/03/22 11:20:22;;;;;;;;;;;29.00;40.60;;;;;;5116320;28;19915;-82
2022/03/22 11:22:52;;;;;;;;;;;29.10;41.60;;;;;;5116309;28;20387;-80
2022/03/22 11:25:19;;;;;;;;;;;30.90;40.00;;;;;;5116234;28;19950;-81
2022/03/22 11:28:04;;;;;;;;;;;32.40;39.20;;;;;;5116102;28;19916;-81
2022/03/22 11:30:30;;;;;;;;;;;32.60;40.00;;;;;;5116105;28;19972;-82
2022/03/22 11:35:49;;;;;;;;;;;31.20;38.60;;;;;;5116379;28;20371;-81
2022/03/22 11:38:34;;;;;;;;;;;30.80;39.70;;;;;;5116534;28;19915;-81
2022/03/22 11:43:43;;;;;;;;;;;31.50;39.70;;;;;;5115799;28;19968;-81
2022/03/22 11:46:09;;;;;;;;;;;31.60;38.10;;;;;;5115893;28;20364;-82
2022/03/22 11:48:38;;;;;;;;;;;31.40;38.30;;;;;;5116020;28;19916;-81
2022/03/22 11:51:04;;;;;;;;;;;31.20;38.40;;;;;;5116887;28;20341;-80
2022/03/22 11:53:39;;;;;;;;;;;32.10;38.40;;;;;;5097976;28;19908;-80
2022/03/22 11:56:05;;;;;;;;;;;31.40;39.10;;;;;;5116007;28;19915;-83
2022/03/22 11:58:31;;;;;;;;;;;32.40;37.90;;;;;;5115570;28;19907;-81
2022/03/22 12:00:58;;;;;;;;;;;31.90;39.20;;;;;;5097242;28;19907;-79
2022/03/22 12:03:29;;;;;;;;;;;33.40;38.00;;;;;;5115494;28;19990;-82
2022/03/22 12:05:55;;;;;;;;;;;33.80;37.40;;;;;;5115773;28;19908;-83
2022/03/22 12:08:23;;;;;;;;;;;33.60;38.00;;;;;;5097066;28;19912;-82
2022/03/22 12:10:49;;;;;;;;;;;33.30;37.30;;;;;;5097033;28;19908;-80
2022/03/22 12:13:16;;;;;;;;;;;33.60;37.50;;;;;;5115525;28;20391;-80
2022/03/22 12:15:41;;;;;;;;;;;34.20;37.70;;;;;;5096914;28;20033;-83
2022/03/22 12:18:09;;;;;;;;;;;34.70;36.50;;;;;;5114121;28;19955;-82
2022/03/22 12:20:35;;;;;;;;;;;34.60;36.30;;;;;;5115462;28;19912;-82
2022/03/22 12:23:00;;;;;;;;;;;34.40;36.50;;;;;;5115074;28;19930;-82
2022/03/22 12:25:27;;;;;;;;;;;34.60;36.20;;;;;;5115078;28;20012;-81
2022/03/22 12:27:59;;;;;;;;;;;33.80;36.60;;;;;;5114862;28;19912;-84
2022/03/22 12:30:26;;;;;;;;;;;33.00;36.60;;;;;;5114951;28;20356;-82
2022/03/22 12:32:53;;;;;;;;;;;33.00;36.90;;;;;;5114919;28;19943;-80
2022/03/22 12:35:20;;;;;;;;;;;34.50;36.20;;;;;;5096654;28;19912;-83
2022/03/22 12:37:46;;;;;;;;;;;33.50;36.50;;;;;;5114821;28;19908;-80
2022/03/22 12:40:13;;;;;;;;;;;34.10;36.40;;;;;;5096515;28;19985;-79
2022/03/22 12:42:39;;;;;;;;;;;34.60;36.00;;;;;;5096471;28;19915;-80
2022/03/22 12:45:05;;;;;;;;;;;33.50;36.90;;;;;;5114748;28;19960;-81
2022/03/22 12:47:31;;;;;;;;;;;34.20;36.30;;;;;;5096309;28;20363;-79
2022/03/22 12:49:56;;;;;;;;;;;35.80;36.40;;;;;;5096336;28;19937;-83
2022/03/22 12:52:22;;;;;;;;;;;36.40;35.10;;;;;;5114548;28;19912;-83
2022/03/22 12:54:48;;;;;;;;;;;36.30;35.30;;;;;;5096248;28;19908;-82
2022/03/22 12:57:14;;;;;;;;;;;37.50;35.50;;;;;;5096235;28;20364;-84
2022/03/22 12:59:41;;;;;;;;;;;36.90;35.30;;;;;;5096179;28;19908;-80
2022/03/22 13:02:07;;;;;;;;;;;36.10;35.50;;;;;;5114766;28;20002;-81
2022/03/22 13:04:37;;;;;;;;;;;35.50;34.70;;;;;;5096146;28;19939;-84
2022/03/22 13:07:08;;;;;;;;;;;36.00;35.50;;;;;;5114622;28;19907;-83
2022/03/22 13:12:19;;;;;;;;;;;35.50;34.90;;;;;;5114608;28;19956;-83
2022/03/22 13:15:06;;;;;;;;;;;34.60;35.30;;;;;;5114799;28;19960;-81
2022/03/22 13:17:31;;;;;;;;;;;34.60;35.00;;;;;;5114064;28;19942;-80
2022/03/22 13:19:58;;;;;;;;;;;35.40;35.40;;;;;;5095813;28;19908;-80
2022/03/22 13:22:26;;;;;;;;;;;34.50;34.70;;;;;;5114113;28;19919;-79
2022/03/22 13:25:08;;;;;;;;;;;35.10;36.00;;;;;;5114043;28;19995;-80
2022/03/22 13:27:35;;;;;;;;;;;35.80;36.10;;;;;;5095797;28;20372;-80
2022/03/22 13:30:02;;;;;;;;;;;36.20;34.80;;;;;;5113669;28;19940;-81
2022/03/22 13:32:29;;;;;;;;;;;34.20;34.90;;;;;;5095766;28;19908;-81
2022/03/22 13:35:04;;;;;;;;;;;33.80;35.70;;;;;;5095737;28;19912;-80
2022/03/22 13:37:41;;;;;;;;;;;33.90;35.60;;;;;;5114005;28;20330;-83
2022/03/22 13:40:08;;;;;;;;;;;35.00;36.40;;;;;;5114300;28;20423;-79
2022/03/22 13:42:33;;;;;;;;;;;35.80;35.80;;;;;;5114040;28;20257;-83
2022/03/22 13:45:00;;;;;;;;;;;35.50;35.50;;;;;;5114053;28;19915;-79
2022/03/22 13:47:41;;;;;;;;;;;35.70;34.60;;;;;;5095557;28;19908;-80
2022/03/22 13:50:08;;;;;;;;;;;35.00;35.80;;;;;;5114197;28;19930;-82
2022/03/22 13:52:36;;;;;;;;;;;35.20;35.40;;;;;;5114298;28;19907;-82
2022/03/22 13:55:10;;;;;;;;;;;34.40;35.30;;;;;;5113804;28;20321;-84
2022/03/22 13:57:36;;;;;;;;;;;35.10;35.20;;;;;;5095371;28;20269;-83
2022/03/22 14:00:04;;;;;;;;;;;35.90;35.00;;;;;;5095591;28;19908;-81
2022/03/22 14:02:30;;;;;;;;;;;35.70;35.60;;;;;;5113924;28;19908;-81
2022/03/22 14:04:56;;;;;;;;;;;34.70;34.50;;;;;;5113897;28;20364;-80
2022/03/22 14:07:22;;;;;;;;;;;34.80;36.00;;;;;;5113699;28;19973;-81
2022/03/22 14:09:49;;;;;;;;;;;34.70;35.30;;;;;;5113682;28;19908;-82
2022/03/22 14:12:14;;;;;;;;;;;34.80;35.10;;;;;;5095460;28;20319;-82
2022/03/22 14:14:40;;;;;;;;;;;33.30;34.00;;;;;;5095411;28;19923;-81
2022/03/22 14:17:06;;;;;;;;;;;32.00;35.90;;;;;;5095246;28;19926;-81
2022/03/22 14:19:32;;;;;;;;;;;31.60;35.00;;;;;;5113613;28;19998;-81
2022/03/22 14:21:57;;;;;;;;;;;30.40;36.10;;;;;;5113759;28;20283;-79
2022/03/22 14:24:26;;;;;;;;;;;30.50;36.40;;;;;;5095373;28;19912;-82
2022/03/22 14:26:53;;;;;;;;;;;30.10;37.00;;;;;;5095301;28;19908;-80
2022/03/22 14:29:19;;;;;;;;;;;30.10;37.50;;;;;;5095165;28;20378;-79
2022/03/22 14:31:44;;;;;;;;;;;29.40;38.10;;;;;;5095172;28;20008;-83
2022/03/22 14:34:12;;;;;;;;;;;30.60;37.30;;;;;;5113540;28;19919;-82
2022/03/22 14:36:37;;;;;;;;;;;30.30;38.10;;;;;;5114117;28;19943;-80
2022/03/22 14:39:03;;;;;;;;;;;30.50;37.00;;;;;;5113498;28;20367;-83
2022/03/22 14:41:30;;;;;;;;;;;30.10;37.80;;;;;;5114420;28;19915;-82
2022/03/22 14:43:56;;;;;;;;;;;29.10;38.00;;;;;;5117103;28;19908;-78
2022/03/22 14:46:22;;;;;;;;;;;28.50;38.30;;;;;;5098739;28;19951;-83
2022/03/22 14:48:49;;;;;;;;;;;29.30;38.50;;;;;;5098667;28;19935;-80
2022/03/22 14:54:02;;;;;;;;;;;28.50;39.00;;;;;;5116739;28;19946;-80
2022/03/22 14:59:12;;;;;;;;;;;27.40;40.10;;;;;;5116791;28;19915;-80
2022/03/22 15:01:38;;;;;;;;;;;27.50;40.10;;;;;;5116710;28;19908;-79